Time;durP1;ratioP1;P1;durP2;ratioP2;P2;SDS_P1;SDS_P2;PMS_P1;PMS_P2;Temp;Humidity;BMP_temperature;BMP_pressure;BME280_temperature;BME280_humidity;BME280_pressure;Samples;Min_cycle;Max_cycle;Signal;HPM_P1;HPM_P2
2021/12/25 00:02:20;;;;;;;;;;;;;;;-8.63;99.64;100526.28;5076841;28;20670;-87
2021/12/25 00:04:45;;;;;;;;;;;;;;;-8.59;99.92;100535.63;5045400;28;19951;-89
2021/12/25 00:07:11;;;;;;;;;;;;;;;-8.59;100.00;100548.56;5046287;28;19917;-89
2021/12/25 00:09:36;;;;;;;;;;;;;;;-8.58;100.00;100561.47;5054724;28;19920;-90
2021/12/25 00:12:01;;;;;;;10.52;2.47;;;;;;;-8.66;100.00;100547.94;5035475;28;19929;-87
2021/12/25 00:14:27;;;;;;;9.15;2.95;;;;;;;-8.66;100.00;100560.00;5034467;28;20528;-88
2021/12/25 00:16:53;;;;;;;;;;;;;;;-8.59;100.00;100601.22;5035133;28;20036;-87
2021/12/25 00:19:18;;;;;;;5.03;2.97;;;;;;;-8.62;100.00;100588.34;5050038;28;19912;-87
2021/12/25 00:21:44;;;;;;;;;;;;;;;-8.66;100.00;100586.75;5038309;28;20098;-88
2021/12/25 00:24:09;;;;;;;;;;;;;;;-8.58;100.00;100633.97;5073349;28;19913;-88
2021/12/25 00:29:26;;;;;;;5.93;1.98;;;;;;;-8.52;100.00;100666.63;5054938;28;20028;-87
2021/12/25 00:31:51;;;;;;;6.20;1.58;;;;;;;-8.45;100.00;100695.75;5054048;28;20032;-88
2021/12/25 00:34:17;;;;;;;11.25;2.70;;;;;;;-8.43;100.00;100709.50;5054523;28;20036;-88
2021/12/25 00:36:42;;;;;;;;;;;;;;;-8.44;100.00;100708.66;5038569;28;20196;-88
2021/12/25 00:39:08;;;;;;;5.13;1.90;;;;;;;-8.52;100.00;100695.09;5035380;28;19977;-87
2021/12/25 00:41:35;;;;;;;2.78;1.40;;;;;;;-8.50;100.00;100724.34;5045124;28;20037;-87
2021/12/25 00:44:00;;;;;;;;;;;;;;;-8.53;100.00;100724.44;5054249;28;20036;-87
2021/12/25 00:46:25;;;;;;;4.47;1.67;;;;;;;-8.52;100.00;100739.94;5036989;28;19987;-87
2021/12/25 00:48:51;;;;;;;3.22;1.70;;;;;;;-8.54;100.00;100752.09;5033693;28;20036;-89
2021/12/25 00:51:16;;;;;;;5.93;1.38;;;;;;;-8.50;100.00;100769.25;5049776;28;20485;-88
2021/12/25 00:53:42;;;;;;;;;;;;;;;-8.50;100.00;100771.81;5041366;28;20032;-87
2021/12/25 00:56:08;;;;;;;9.13;2.13;;;;;;;-8.39;100.00;100802.56;5057500;28;20342;-87
2021/12/25 00:58:34;;;;;;;4.72;1.85;;;;;;;-8.59;100.00;100777.25;5057340;28;20131;-87
2021/12/25 01:01:00;;;;;;;;;;;;;;;-8.40;100.00;100802.66;5057667;28;20132;-88
2021/12/25 01:03:25;;;;;;;6.20;1.92;;;;;;;-8.42;100.00;100796.66;5041653;28;19991;-87
2021/12/25 01:05:51;;;;;;;;;;;;;;;-8.31;100.00;100818.75;5039269;28;20060;-89
2021/12/25 01:08:16;;;;;;;4.18;1.65;;;;;;;-8.52;100.00;100767.59;5053190;28;20357;-87
2021/12/25 01:10:42;;;;;;;6.00;2.35;;;;;;;-8.47;100.00;100777.78;5040712;28;20040;-88
2021/12/25 01:13:12;;;;;;;;;;;;;;;-8.50;100.00;100771.81;5058078;28;20048;-87
2021/12/25 01:15:54;;;;;;;3.75;2.60;;;;;;;-8.51;100.00;100788.25;5040988;28;19973;-86
2021/12/25 01:29:29;;;;;;;10.35;3.45;;;;;;;-8.51;100.00;100777.88;5059179;28;20078;-88
2021/12/25 01:31:47;;;;;;;16.83;2.83;;;;;;;-8.53;100.00;100751.19;5054830;28;20055;-87
2021/12/25 01:37:26;;;;;;;6.10;2.78;;;;;;;-8.65;100.00;100720.44;5073021;28;20524;-88
2021/12/25 01:49:08;;;;;;;5.70;2.40;;;;;;;-8.97;100.00;100613.47;5072303;28;20062;-88
2021/12/25 01:51:33;;;;;;;;;;;;;;;-8.96;100.00;100611.75;5043711;28;20033;-88
2021/12/25 01:53:59;;;;;;;10.32;2.35;;;;;;;-9.03;100.00;100594.72;5042276;28;19957;-88
2021/12/25 01:56:25;;;;;;;;;;;;;;;-9.01;100.00;100609.28;5039692;28;20048;-87
2021/12/25 01:58:51;;;;;;;7.75;2.90;;;;;;;-9.08;100.00;100586.19;5036392;28;19919;-89
2021/12/25 02:01:18;;;;;;;6.78;2.72;;;;;;;-9.04;100.00;100593.00;5055823;28;20119;-88
2021/12/25 02:03:44;;;;;;;6.97;3.67;;;;;;;-9.11;100.00;100573.38;5054945;28;20048;-88
2021/12/25 02:06:11;;;;;;;15.07;3.40;;;;;;;-9.13;100.00;100560.47;5055745;28;20028;-88
2021/12/25 02:08:39;;;;;;;8.75;2.65;;;;;;;-9.17;100.00;100562.31;5037578;28;20131;-89
2021/12/25 02:11:06;;;;;;;6.38;2.58;;;;;;;-9.20;100.00;100561.53;5036399;28;20528;-87
2021/12/25 02:13:31;;;;;;;7.63;3.17;;;;;;;-9.20;100.00;100553.75;5036290;28;20036;-87
2021/12/25 02:16:00;;;;;;;6.10;2.20;;;;;;;-9.23;100.00;100551.28;5035425;28;20550;-87
2021/12/25 02:18:56;;;;;;;8.90;3.60;;;;;;;-9.30;100.00;100539.41;5035590;28;20032;-90
2021/12/25 02:21:39;;;;;;;6.50;2.72;;;;;;;-9.39;100.00;100518.09;5055257;28;20040;-87
2021/12/25 02:24:08;;;;;;;5.40;2.47;;;;;;;-9.42;100.00;100518.16;5054151;28;20036;-87
2021/12/25 02:26:35;;;;;;;4.43;2.38;;;;;;;-9.43;100.00;100519.06;5036789;28;20115;-89
2021/12/25 02:29:01;;;;;;;9.63;3.00;;;;;;;-9.36;100.00;100543.84;5040665;28;20040;-89
2021/12/25 02:31:27;;;;;;;7.20;2.47;;;;;;;-9.45;100.00;100522.59;5041237;28;20440;-87
2021/12/25 02:33:53;;;;;;;5.97;2.13;;;;;;;-9.38;100.00;100542.22;5034348;28;20029;-88
2021/12/25 02:36:19;;;;;;;7.38;2.42;;;;;;;-9.43;100.00;100529.41;5050066;28;20497;-88
2021/12/25 02:38:45;;;;;;;5.43;2.65;;;;;;;-9.49;100.00;100516.63;5037732;28;20339;-87
2021/12/25 02:41:11;;;;;;;6.75;2.33;;;;;;;-9.58;100.00;100506.53;5037780;28;20040;-88
2021/12/25 02:43:38;;;;;;;7.63;2.97;;;;;;;-9.52;100.00;100529.66;5037812;28;20067;-88
2021/12/25 02:46:05;;;;;;;3.85;2.25;;;;;;;-9.55;100.00;100521.97;5035620;28;20039;-88
2021/12/25 02:48:36;;;;;;;8.38;2.78;;;;;;;-9.59;100.00;100522.94;5027017;28;20990;-88
2021/12/25 02:51:04;;;;;;;11.55;2.95;;;;;;;-9.60;100.00;100518.66;5034842;28;20040;-88
2021/12/25 02:53:29;;;;;;;7.47;2.58;;;;;;;-9.69;100.00;100514.59;5027055;28;20058;-88
2021/12/25 02:55:55;;;;;;;5.50;2.38;;;;;;;-9.71;100.00;100508.63;5038492;28;20029;-87
2021/12/25 02:58:24;;;;;;;6.60;2.55;;;;;;;-9.65;100.00;100539.44;5054781;28;20024;-87
2021/12/25 03:01:06;;;;;;;9.77;2.28;;;;;;;-9.61;100.00;100554.00;5054799;28;20035;-87
2021/12/25 03:03:32;;;;;;;10.63;2.60;;;;;;;-9.64;100.00;100548.91;5055704;28;20059;-87
2021/12/25 03:05:57;;;;;;;5.90;2.30;;;;;;;-9.82;100.00;100518.38;5039145;28;20497;-87
2021/12/25 03:08:24;;;;;;;4.28;1.88;;;;;;;-9.72;100.00;100552.56;5039561;28;20028;-87
2021/12/25 03:10:59;;;;;;;6.37;2.10;;;;;;;-9.72;100.00;100562.91;5042074;28;20032;-88
2021/12/25 03:13:42;;;;;;;6.85;2.60;;;;;;;-9.70;100.00;100574.06;5042571;28;20330;-87
2021/12/25 03:16:07;;;;;;;9.85;2.60;;;;;;;-9.73;100.00;100574.97;5037358;28;20100;-88
2021/12/25 03:18:41;;;;;;;11.75;2.08;;;;;;;-9.74;100.00;100582.75;5051950;28;20072;-87
2021/12/25 03:21:08;;;;;;;9.35;2.70;;;;;;;-9.75;100.00;100594.00;5054735;28;20041;-87
2021/12/25 03:23:36;;;;;;;7.00;2.55;;;;;;;-9.63;100.00;100645.38;5055401;28;20493;-87
2021/12/25 03:26:04;;;;;;;5.93;2.13;;;;;;;-9.67;100.00;100649.78;5054353;28;20106;-87
2021/12/25 03:28:32;;;;;;;8.75;2.75;;;;;;;-9.66;100.00;100668.72;5054014;28;20115;-87
2021/12/25 03:31:05;;;;;;;4.63;2.58;;;;;;;-9.71;100.00;100667.97;5036491;28;20045;-87
2021/12/25 03:33:32;;;;;;;9.98;2.80;;;;;;;-9.73;100.00;100700.75;5033194;28;20040;-88
2021/12/25 03:35:58;;;;;;;8.60;1.98;;;;;;;-9.74;100.00;100699.88;5084769;28;20024;-90
2021/12/25 03:38:26;;;;;;;7.50;3.28;;;;;;;-9.80;100.00;100693.13;5053788;28;20037;-88
2021/12/25 03:40:53;;;;;;;6.68;2.40;;;;;;;-9.81;100.00;100694.03;5033182;28;20032;-88
2021/12/25 03:43:19;;;;;;;7.15;2.38;;;;;;;-9.79;100.00;100707.72;5033207;28;20127;-88
2021/12/25 03:45:46;;;;;;;5.88;2.67;;;;;;;-9.79;100.00;100723.25;5053755;28;20086;-87
2021/12/25 03:48:29;;;;;;;6.13;2.58;;;;;;;-9.72;100.00;100751.53;5052699;28;20068;-88
2021/12/25 03:59:04;;;;;;;4.15;2.08;;;;;;;-9.66;100.00;100805.69;5046566;28;20033;-89
2021/12/25 04:04:14;;;;;;;3.28;2.10;;;;;;;-9.73;100.00;100804.97;5052757;28;20118;-87
2021/12/25 04:07:00;;;;;;;9.85;2.85;;;;;;;-9.70;100.00;100820.38;5052867;28;20032;-88
2021/12/25 04:09:30;;;;;;;4.78;3.00;;;;;;;-9.66;100.00;100842.69;5052525;28;20033;-90
2021/12/25 04:12:01;;;;;;;10.73;2.85;;;;;;;-9.63;100.00;100862.47;5035961;28;20036;-89
2021/12/25 04:14:28;;;;;;;13.45;3.00;;;;;;;-9.62;100.00;100875.38;5033202;28;20029;-87
2021/12/25 04:16:53;;;;;;;6.47;2.65;;;;;;;-9.64;100.00;100871.13;5032643;28;20036;-87
2021/12/25 04:19:19;;;;;;;18.08;2.63;;;;;;;-9.63;100.00;100888.31;5048354;28;20041;-88
2021/12/25 04:21:56;;;;;;;11.82;2.67;;;;;;;-9.60;100.00;100914.97;5049706;23;20032;-74
2021/12/25 04:24:23;;;;;;;7.05;2.30;;;;;;;-9.56;100.00;100921.75;5005612;28;20086;-76
2021/12/25 04:26:49;;;;;;;7.55;1.90;;;;;;;-9.57;100.00;100929.56;5034626;28;20115;-76
2021/12/25 04:29:42;;;;;;;5.35;2.25;;;;;;;-9.60;100.00;100921.84;5027093;28;20036;-75
2021/12/25 04:32:37;;;;;;;3.83;1.92;;;;;;;-9.63;100.00;100924.50;5020137;28;20053;-76
2021/12/25 05:01:44;;;;;;;4.15;1.80;;;;;;;-10.00;100.00;100896.78;5027027;28;20040;-76
2021/12/25 05:01:45;;;;;;;9.23;2.20;;;;;;;-10.04;100.00;100892.56;5043001;28;20136;-76
2021/12/25 05:04:58;;;;;;;8.48;3.08;;;;;;;-10.01;100.00;100914.00;5044399;28;20040;-75
2021/12/25 05:07:42;;;;;;;11.48;3.58;;;;;;;-10.04;100.00;100908.06;5044623;28;20048;-75
2021/12/25 05:10:08;;;;;;;7.85;2.95;;;;;;;-10.10;100.00;100906.41;5026780;28;20037;-76
2021/12/25 05:12:33;;;;;;;7.72;3.03;;;;;;;-10.13;100.00;100890.16;5026661;28;20040;-75
2021/12/25 05:14:59;;;;;;;11.90;2.72;;;;;;;-10.15;100.00;100890.16;5026362;28;20127;-76
2021/12/25 05:17:25;;;;;;;7.45;3.60;;;;;;;-10.14;100.00;100899.59;5026456;28;20510;-76
2021/12/25 05:19:50;;;;;;;8.32;2.35;;;;;;;-10.07;100.00;100910.69;5027089;28;20037;-77
2021/12/25 05:22:17;;;;;;;6.40;2.22;;;;;;;-10.00;100.00;100936.38;5026264;28;20044;-77
2021/12/25 05:24:43;;;;;;;4.93;2.30;;;;;;;-10.02;100.00;100916.59;5025550;28;20068;-75
2021/12/25 05:27:09;;;;;;;6.07;1.90;;;;;;;-10.07;100.00;100900.34;5026235;28;20726;-76
2021/12/25 05:29:37;;;;;;;4.45;2.35;;;;;;;-10.11;100.00;100893.53;5024883;28;20091;-76
2021/12/25 05:32:04;;;;;;;6.00;2.53;;;;;;;-10.13;100.00;100877.25;5043194;28;20091;-76
2021/12/25 05:34:44;;;;;;;3.22;1.60;;;;;;;-10.14;100.00;100871.19;5026191;28;20029;-75
2021/12/25 05:37:29;;;;;;;4.07;2.22;;;;;;;-10.20;100.00;100861.84;5026676;28;20043;-76
2021/12/25 05:40:14;;;;;;;8.00;2.50;;;;;;;-10.23;100.00;100849.00;5030056;28;20393;-76
2021/12/25 05:42:46;;;;;;;4.43;2.20;;;;;;;-10.27;100.00;100826.69;5030017;28;20070;-76
2021/12/25 05:45:11;;;;;;;4.97;2.53;;;;;;;-10.23;100.00;100830.94;5012606;28;20028;-75
2021/12/25 05:47:55;;;;;;;2.58;1.63;;;;;;;-10.23;100.00;100836.09;5029249;28;20147;-77
2021/12/25 05:50:41;;;;;;;2.72;2.13;;;;;;;-10.29;100.00;100812.16;5031839;28;20102;-77
2021/12/25 05:53:24;;;;;;;4.45;2.03;;;;;;;-10.30;100.00;100806.13;5015233;28;20033;-75
2021/12/25 05:56:23;;;;;;;4.15;2.10;;;;;;;-10.32;100.00;100807.91;5014875;28;20167;-75
2021/12/25 05:58:51;;;;;;;5.78;2.30;;;;;;;-10.28;100.00;100822.41;5047652;28;20045;-76
2021/12/25 06:01:52;;;;;;;6.50;2.15;;;;;;;-10.22;100.00;100842.94;5019517;28;20047;-77
2021/12/25 06:04:20;;;;;;;4.80;2.45;;;;;;;-10.19;100.00;100845.47;5029918;28;20572;-77
2021/12/25 06:06:45;;;;;;;4.75;1.70;;;;;;;-10.16;100.00;100856.63;5029569;28;20036;-77
2021/12/25 06:09:11;;;;;;;11.05;2.10;;;;;;;-10.26;100.00;100820.63;5029207;28;20041;-76
2021/12/25 06:11:37;;;;;;;4.70;1.50;;;;;;;-10.28;100.00;100822.41;5044017;28;20037;-75
2021/12/25 06:14:16;;;;;;;16.67;3.03;;;;;;;-10.32;100.00;100814.78;5029145;28;20040;-76
2021/12/25 06:16:51;;;;;;;6.40;2.40;;;;;;;-10.29;100.00;100819.91;5029579;28;20041;-76
2021/12/25 06:19:30;;;;;;;8.73;2.30;;;;;;;-10.27;100.00;100839.59;5031051;28;20029;-78
2021/12/25 06:22:15;;;;;;;;;;;;;;;-10.37;100.00;100796.81;5032590;28;20041;-77
2021/12/25 06:25:10;;;;;;;7.78;2.88;;;;;;;-10.42;100.00;100798.59;5031627;28;19916;-75
2021/12/25 06:28:05;;;;;;;5.03;2.42;;;;;;;-10.46;100.00;100784.06;5029148;28;20045;-76
2021/12/25 06:30:53;;;;;;;11.32;3.33;;;;;;;-10.48;100.00;100785.84;5046714;28;20057;-75
2021/12/25 06:33:27;;;;;;;5.13;2.22;;;;;;;-10.54;100.00;100765.28;5028979;28;20124;-77
2021/12/25 06:36:09;;;;;;;9.15;3.67;;;;;;;-10.41;100.00;100815.81;5029338;28;20033;-76
2021/12/25 06:38:53;;;;;;;7.95;2.75;;;;;;;-10.35;100.00;100831.16;5031276;28;20056;-75
2021/12/25 06:41:24;;;;;;;6.43;2.47;;;;;;;-10.34;100.00;100832.03;5028336;28;20025;-75
2021/12/25 06:43:50;;;;;;;4.30;2.03;;;;;;;-10.40;100.00;100812.34;5033118;28;20564;-76
2021/12/25 06:46:28;;;;;;;14.95;4.07;;;;;;;-10.49;100.00;100787.56;5025386;28;20051;-76
2021/12/25 06:48:55;;;;;;;4.10;2.40;;;;;;;-10.50;100.00;100795.31;5028808;28;20478;-77
2021/12/25 06:51:51;;;;;;;6.45;2.97;;;;;;;-10.48;100.00;100806.47;5037177;28;20450;-76
2021/12/25 06:54:29;;;;;;;9.30;2.25;;;;;;;-10.58;100.00;100782.56;5013291;28;20029;-76
2021/12/25 06:57:14;;;;;;;6.28;2.38;;;;;;;-10.65;100.00;100771.50;5031634;28;20382;-75
2021/12/25 06:59:40;;;;;;;5.05;2.67;;;;;;;-10.67;100.00;100777.56;5028595;28;20521;-76
2021/12/25 07:02:06;;;;;;;4.47;2.40;;;;;;;-10.65;100.00;100809.38;5028550;28;20040;-77
2021/12/25 07:04:50;;;;;;;7.55;2.67;;;;;;;-10.65;100.00;100811.94;5030661;28;20091;-77
2021/12/25 07:07:34;;;;;;;9.50;2.17;;;;;;;-10.73;100.00;100782.84;5031123;28;20122;-76
2021/12/25 07:10:31;;;;;;;5.63;2.47;;;;;;;-10.74;100.00;100794.88;5014932;28;20506;-76
2021/12/25 07:13:20;;;;;;;6.28;3.00;;;;;;;-10.65;100.00;100827.44;5034599;28;20127;-76
2021/12/25 07:16:06;;;;;;;4.57;2.45;;;;;;;-10.60;100.00;100832.47;5025688;28;20556;-76
2021/12/25 07:18:46;;;;;;;12.13;3.00;;;;;;;-10.67;100.00;100801.66;5030226;28;20025;-75
2021/12/25 07:21:32;;;;;;;4.38;2.25;;;;;;;-10.71;100.00;100794.81;5043972;28;20040;-75
2021/12/25 07:24:17;;;;;;;;;;;;;;;-10.69;100.00;100805.13;5028253;28;20025;-76
2021/12/25 07:26:51;;;;;;;2.17;1.70;;;;;;;-10.69;100.00;100802.56;5043579;28;19932;-76
2021/12/25 07:29:21;;;;;;;6.80;2.45;;;;;;;-10.70;100.00;100793.97;5028324;28;20033;-76
2021/12/25 07:31:46;;;;;;;4.70;2.00;;;;;;;-10.71;100.00;100791.41;5027211;28;20033;-76
2021/12/25 07:34:11;;;;;;;4.70;2.70;;;;;;;-10.62;100.00;100835.09;5027329;28;20035;-76
2021/12/25 07:36:37;;;;;;;11.90;3.58;;;;;;;-10.66;100.00;100821.41;5028068;28;20115;-75
2021/12/25 07:39:03;;;;;;;5.07;2.70;;;;;;;-10.69;100.00;100808.56;5027666;28;20033;-77
2021/12/25 07:41:28;;;;;;;5.60;3.20;;;;;;;-10.69;100.00;100812.88;5011483;28;20116;-76
2021/12/25 07:43:53;;;;;;;6.10;2.83;;;;;;;-10.63;100.00;100836.84;5027666;28;20040;-75
2021/12/25 07:46:37;;;;;;;8.27;3.38;;;;;;;-10.58;100.00;100866.84;5030221;28;20561;-75
2021/12/25 07:49:04;;;;;;;9.13;3.22;;;;;;;-10.58;100.00;100849.66;5045616;28;20119;-75
2021/12/25 07:51:30;;;;;;;7.07;3.15;;;;;;;-10.58;100.00;100854.81;5027537;28;20502;-75
2021/12/25 07:53:55;;;;;;;12.60;3.75;;;;;;;-10.56;100.00;100857.38;5027215;28;20028;-76
2021/12/25 07:56:25;;;;;;;12.05;4.38;;;;;;;-10.49;100.00;100874.44;5027824;28;20478;-75
2021/12/25 07:58:51;;;;;;;7.68;3.38;;;;;;;-10.54;100.00;100856.47;5044221;28;20530;-76
2021/12/25 08:01:16;;;;;;;6.38;3.33;;;;;;;-10.51;100.00;100846.09;5025752;28;20047;-77
2021/12/25 08:03:41;;;;;;;7.47;2.75;;;;;;;-10.39;100.00;100883.75;5043918;28;20482;-75
2021/12/25 08:06:07;;;;;;;7.07;3.05;;;;;;;-10.32;100.00;100890.50;5011116;28;20482;-75
2021/12/25 08:08:32;;;;;;;6.43;3.38;;;;;;;-10.27;100.00;100896.41;5027314;28;20029;-76
2021/12/25 08:10:58;;;;;;;8.73;3.65;;;;;;;-10.25;100.00;100892.06;5027341;28;20490;-76
2021/12/25 08:13:23;;;;;;;6.95;3.72;;;;;;;-10.06;100.00;100925.31;5044940;28;20548;-75
2021/12/25 08:15:49;;;;;;;8.43;3.20;;;;;;;-10.01;100.00;100932.09;5010280;28;20033;-75
2021/12/25 08:18:15;;;;;;;7.57;3.70;;;;;;;-9.89;100.00;100954.25;5045131;28;20098;-75
2021/12/25 08:20:59;;;;;;;7.22;3.67;;;;;;;-9.92;100.00;100928.50;5045475;28;20055;-75
2021/12/25 08:23:44;;;;;;;14.48;5.45;;;;;;;-9.96;100.00;100898.41;5030078;28;20052;-75
2021/12/25 08:26:28;;;;;;;10.30;4.82;;;;;;;-9.86;100.00;100936.09;5045781;28;20395;-75
2021/12/25 08:29:13;;;;;;;17.80;7.32;;;;;;;-9.87;100.00;100916.34;5045409;28;20051;-76
2021/12/25 08:31:57;;;;;;;4.38;3.30;;;;;;;-9.60;100.00;100977.00;5029778;28;20090;-75
2021/12/25 08:34:49;;;;;;;9.43;3.75;;;;;;;-9.42;100.00;101001.63;5007089;28;20391;-75
2021/12/25 08:37:24;;;;;;;9.25;4.20;;;;;;;-9.27;100.00;101015.13;5027495;28;20040;-76
2021/12/25 08:39:51;;;;;;;8.13;4.32;;;;;;;-9.23;100.00;101027.13;5044922;28;20494;-75
2021/12/25 08:42:17;;;;;;;11.95;4.10;;;;;;;-8.56;100.00;101173.28;5010937;28;20037;-76
2021/12/25 08:45:04;;;;;;;10.73;5.93;;;;;;;-7.18;100.00;101295.56;5044954;28;20044;-76
2021/12/25 08:47:31;;;;;;;9.05;4.05;;;;;;;-5.48;100.00;101305.69;5026816;28;20062;-78
2021/12/25 08:49:57;;;;;;;4.75;3.08;;;;;;;-4.21;100.00;101256.31;5027224;28;20029;-76
2021/12/25 08:52:24;;;;;;;;;;;;;;;-3.05;100.00;101212.63;5027557;28;20126;-76
2021/12/25 08:54:51;;;;;;;10.90;4.00;;;;;;;-2.23;100.00;101144.56;5043179;28;20412;-76
2021/12/25 08:57:18;;;;;;;7.93;3.50;;;;;;;-1.51;99.62;101090.53;5044842;28;20129;-76
2021/12/25 08:59:44;;;;;;;5.85;3.97;;;;;;;-1.25;98.12;101009.78;5026898;28;20454;-76
2021/12/25 09:02:14;;;;;;;7.68;4.25;;;;;;;-1.01;96.90;100935.09;5026255;28;20036;-76
2021/12/25 09:04:41;;;;;;;5.78;3.63;;;;;;;-0.60;94.97;100920.66;5044366;28;20112;-76
2021/12/25 09:07:07;;;;;;;6.10;3.38;;;;;;;0.12;93.41;100911.22;5010272;28;20541;-76
2021/12/25 09:09:32;;;;;;;;;;;;;;;0.53;87.67;100829.06;5027288;28;20487;-77
2021/12/25 09:11:57;;;;;;;6.60;3.92;;;;;;;0.80;84.72;100748.47;5044747;28;19967;-76
2021/12/25 09:14:23;;;;;;;7.97;4.00;;;;;;;0.71;80.51;100585.31;5029644;28;20383;-76
2021/12/25 09:16:49;;;;;;;7.53;4.03;;;;;;;1.38;80.56;100687.66;5030903;28;20033;-76
2021/12/25 09:19:14;;;;;;;12.80;5.32;;;;;;;1.87;76.37;100632.47;5030731;28;20067;-77
2021/12/25 09:21:40;;;;;;;11.95;5.20;;;;;;;2.06;72.58;100496.81;5030671;28;20037;-76
2021/12/25 09:24:05;;;;;;;7.40;3.87;;;;;;;2.25;68.93;100414.66;5030514;28;20490;-77
2021/12/25 09:26:31;;;;;;;7.10;4.28;;;;;;;2.67;66.25;100397.31;5030612;28;20338;-77
2021/12/25 09:28:56;;;;;;;8.00;4.32;;;;;;;3.02;62.39;100298.75;5048713;28;20037;-76
2021/12/25 09:31:22;;;;;;;12.63;7.70;;;;;;;2.84;62.48;100305.50;5030118;28;20112;-76
2021/12/25 09:33:49;;;;;;;9.52;5.30;;;;;;;3.38;60.35;100301.97;5046958;28;20025;-76
2021/12/25 09:36:15;;;;;;;9.70;5.45;;;;;;;3.66;59.32;100316.34;5030254;28;20107;-76
2021/12/25 09:38:41;;;;;;;9.43;3.97;;;;;;;3.96;57.95;100327.94;5030175;28;20139;-76
2021/12/25 09:41:06;;;;;;;9.23;5.38;;;;;;;4.28;57.30;100330.44;5022335;28;20041;-76
2021/12/25 09:43:33;;;;;;;8.70;4.27;;;;;;;3.80;55.66;100160.22;5030199;28;20043;-77
2021/12/25 09:45:58;;;;;;;12.73;5.25;;;;;;;3.42;56.26;100144.19;5030334;28;20115;-77
2021/12/25 09:48:24;;;;;;;7.68;4.25;;;;;;;4.01;57.08;100286.94;5042363;28;20132;-77
2021/12/25 09:50:50;;;;;;;5.88;2.85;;;;;;;3.99;55.32;100217.56;5030436;28;20053;-76
2021/12/25 09:53:18;;;;;;;4.65;1.73;;;;;;;3.72;53.53;100091.41;5029890;28;20103;-77
2021/12/25 09:55:46;;;;;;;3.78;1.42;;;;;;;4.37;54.47;100275.97;5029709;28;20041;-76
2021/12/25 09:58:12;;;;;;;9.05;1.98;;;;;;;5.30;53.20;100356.78;5029959;28;20406;-77
2021/12/25 10:00:42;;;;;;;4.25;2.22;;;;;;;5.83;51.84;100364.31;5028858;28;20090;-77
2021/12/25 10:03:10;;;;;;;4.68;2.80;;;;;;;6.06;51.77;100374.59;5041068;28;20047;-77
2021/12/25 10:05:43;;;;;;;6.70;3.37;;;;;;;6.36;51.54;100380.69;5029515;28;20025;-77
2021/12/25 10:08:13;;;;;;;4.97;2.25;;;;;;;5.83;50.67;100245.09;5047627;28;20719;-77
2021/12/25 10:10:50;;;;;;;4.32;2.17;;;;;;;5.86;50.27;100223.59;5029649;28;20040;-77
2021/12/25 10:13:40;;;;;;;5.82;2.53;;;;;;;5.97;49.77;100233.22;5029402;28;20040;-77
2021/12/25 10:16:24;;;;;;;5.65;2.10;;;;;;;5.63;50.42;100231.06;5013247;28;20040;-77
2021/12/25 10:18:51;;;;;;;2.05;1.33;;;;;;;5.17;51.51;100300.63;5017868;28;20394;-76
2021/12/25 10:21:27;;;;;;;2.60;1.20;;;;;;;5.22;50.42;100256.91;5025080;28;20044;-76
2021/12/25 10:24:10;;;;;;;4.93;1.15;;;;;;;4.90;49.15;100127.53;5025470;28;20048;-77
2021/12/25 10:26:38;;;;;;;3.22;1.20;;;;;;;5.47;48.79;100207.81;5044648;28;20371;-75
2021/12/25 10:29:27;;;;;;;8.35;1.13;;;;;;;5.84;47.83;100212.31;5029817;28;20040;-77
2021/12/25 10:31:55;;;;;;;5.43;1.05;;;;;;;5.50;48.40;100146.66;5042409;28;20060;-76
2021/12/25 10:34:25;;;;;;;3.42;1.20;;;;;;;5.86;47.88;100207.69;5029254;28;20068;-75
2021/12/25 10:36:50;;;;;;;4.28;1.05;;;;;;;5.41;47.12;100089.25;5030108;28;20033;-76
2021/12/25 10:39:20;;;;;;;1.90;1.10;;;;;;;5.99;46.87;100164.16;5029517;28;20041;-74
2021/12/25 10:41:58;;;;;;;2.47;0.93;;;;;;;5.65;47.30;100144.34;5029198;28;20133;-74
2021/12/25 10:44:31;;;;;;;2.88;1.10;;;;;;;5.85;47.10;100139.81;5029393;28;20122;-74
2021/12/25 10:46:58;;;;;;;2.42;1.10;;;;;;;5.58;47.76;100158.31;5018838;28;20179;-74
2021/12/25 10:49:30;;;;;;;5.50;2.28;;;;;;;5.38;48.56;100166.31;5043555;28;20029;-74
2021/12/25 10:52:08;;;;;;;2.42;1.38;;;;;;;4.85;49.12;100151.78;5013073;28;20029;-74
2021/12/25 10:54:39;;;;;;;1.48;1.08;;;;;;;5.24;49.17;100217.03;5046648;28;20045;-75
2021/12/25 10:57:05;;;;;;;4.28;1.65;;;;;;;5.55;48.94;100216.84;5029450;28;20155;-75
2021/12/25 10:59:45;;;;;;;2.22;0.90;;;;;;;5.41;47.53;100131.63;5029050;28;20517;-76
2021/12/25 11:02:37;;;;;;;3.05;1.23;;;;;;;4.76;48.28;100094.44;5028850;28;20045;-74
2021/12/25 11:05:23;;;;;;;1.67;1.30;;;;;;;5.02;48.85;100178.50;5028985;28;20035;-75
2021/12/25 11:08:15;;;;;;;5.15;1.48;;;;;;;4.95;49.51;100209.97;5028932;28;20040;-75
2021/12/25 11:10:46;;;;;;;3.03;1.40;;;;;;;4.86;49.67;100185.16;5028957;28;20144;-75
2021/12/25 11:13:21;;;;;;;2.35;1.20;;;;;;;5.50;49.67;100286.13;5012341;28;20063;-75
2021/12/25 11:15:47;;;;;;;4.82;1.30;;;;;;;5.08;48.47;100131.13;5028750;28;20049;-74
2021/12/25 11:18:14;;;;;;;;;;;;;;;4.36;48.30;100044.38;5009450;28;20040;-74
2021/12/25 11:20:41;;;;;;;3.53;1.30;;;;;;;4.19;48.77;100053.78;5027282;28;20860;-74
2021/12/25 11:23:10;;;;;;;4.00;1.65;;;;;;;4.44;49.63;100142.28;5046301;28;20029;-74
2021/12/25 11:25:37;;;;;;;3.60;1.48;;;;;;;4.19;49.95;100099.56;5028224;28;20036;-74
2021/12/25 11:28:07;;;;;;;1.35;1.15;;;;;;;3.59;50.54;100067.88;5046453;28;20490;-74
2021/12/25 11:30:36;;;;;;;2.42;1.05;;;;;;;3.96;50.52;100133.31;5046189;28;20037;-74
2021/12/25 11:33:02;;;;;;;1.85;1.08;;;;;;;4.22;49.74;100144.22;5038459;28;20505;-74
2021/12/25 11:35:28;;;;;;;2.60;1.10;;;;;;;4.23;49.51;100115.97;5027641;28;20029;-75
2021/12/25 11:37:55;;;;;;;2.00;1.00;;;;;;;4.44;49.74;100163.44;5046115;28;20765;-75
2021/12/25 11:40:27;;;;;;;4.50;1.10;;;;;;;4.39;49.73;100152.44;5028337;28;20068;-74
2021/12/25 11:42:56;;;;;;;3.05;1.10;;;;;;;4.57;50.69;100242.50;5020929;28;20069;-75
2021/12/25 11:45:27;;;;;;;2.45;1.02;;;;;;;4.61;49.04;100165.41;5045944;28;20103;-74
2021/12/25 11:47:55;;;;;;;2.78;0.80;;;;;;;4.55;49.00;100134.22;5037786;28;20044;-74
2021/12/25 11:50:41;;;;;;;3.72;1.00;;;;;;;3.93;49.86;100080.75;5028407;28;20037;-74
2021/12/25 11:53:13;;;;;;;6.05;2.25;;;;;;;3.92;50.73;100136.34;5028286;28;20037;-74
2021/12/25 11:58:40;;;;;;;3.55;1.67;;;;;;;3.33;52.27;100173.03;5046026;28;20044;-74
2021/12/25 12:01:16;;;;;;;7.50;1.40;;;;;;;3.42;52.50;100212.81;5016516;28;20076;-74
2021/12/25 12:03:46;;;;;;;3.63;1.73;;;;;;;2.94;52.70;100135.84;5026661;28;20041;-74
2021/12/25 12:06:13;;;;;;;2.38;1.23;;;;;;;2.86;53.90;100209.50;5028116;28;20079;-74
2021/12/25 12:08:53;;;;;;;3.08;1.65;;;;;;;3.21;54.04;100262.94;5027866;28;20075;-75
2021/12/25 12:11:40;;;;;;;7.70;1.60;;;;;;;3.26;53.90;100253.69;5030823;28;20056;-74
2021/12/25 12:14:15;;;;;;;2.90;1.40;;;;;;;3.22;53.83;100238.22;5028886;28;20045;-74
2021/12/25 12:17:03;;;;;;;5.97;2.95;;;;;;;3.57;53.54;100274.88;5045727;28;20133;-74
2021/12/25 12:19:47;;;;;;;2.25;1.30;;;;;;;2.99;53.27;100147.81;5044178;28;20041;-75
2021/12/25 12:24:49;;;;;;;1.67;1.33;;;;;;;3.51;53.09;100239.28;5027516;28;20029;-74
2021/12/25 12:27:57;;;;;;;2.92;1.30;;;;;;;3.17;52.69;100133.94;5027803;28;20036;-74
2021/12/25 12:30:32;;;;;;;2.10;1.10;;;;;;;2.94;52.99;100135.84;5027102;28;20060;-74
2021/12/25 12:33:30;;;;;;;2.25;1.52;;;;;;;2.87;53.84;100170.78;5045886;28;20579;-74
2021/12/25 12:35:55;;;;;;;5.82;1.40;;;;;;;2.87;54.48;100211.16;5038033;28;20029;-73
2021/12/25 12:38:42;;;;;;;4.77;1.37;;;;;;;2.78;55.51;100269.09;5027592;28;20047;-73
2021/12/25 12:41:11;;;;;;;2.03;1.17;;;;;;;2.56;55.80;100235.72;5045422;28;20045;-74
2021/12/25 12:43:58;;;;;;;6.05;1.55;;;;;;;2.80;55.51;100275.91;5010357;28;20110;-74
2021/12/25 12:46:44;;;;;;;2.55;1.23;;;;;;;2.67;55.87;100259.38;5045036;28;20131;-73
2021/12/25 12:49:09;;;;;;;4.00;1.67;;;;;;;2.57;55.58;100237.38;5041710;28;20037;-73
2021/12/25 12:51:36;;;;;;;7.03;1.57;;;;;;;2.60;57.00;100322.31;5012986;28;20079;-74
2021/12/25 12:54:03;;;;;;;3.33;1.63;;;;;;;2.63;56.22;100294.88;5047437;28;20764;-74